sensor_id;sensor_type;location;lat;lon;timestamp;pressure;altitude;pressure_sealevel;temperature;humidity
56604;BME280;42486;47.478;19.036;2023-03-19T00:01:37;100620.03;;;3.98;93.24
56604;BME280;42486;47.478;19.036;2023-03-19T00:04:41;100627.00;;;3.96;93.81
56604;BME280;42486;47.478;19.036;2023-03-19T00:07:45;100622.84;;;3.71;95.04
56604;BME280;42486;47.478;19.036;2023-03-19T00:10:50;100617.16;;;3.63;95.55
56604;BME280;42486;47.478;19.036;2023-03-19T00:13:54;100617.22;;;3.62;96.00
56604;BME280;42486;47.478;19.036;2023-03-19T00:16:57;100615.66;;;3.58;97.31
56604;BME280;42486;47.478;19.036;2023-03-19T00:20:00;100615.69;;;3.78;94.96
56604;BME280;42486;47.478;19.036;2023-03-19T00:23:03;100620.78;;;3.80;95.03
56604;BME280;42486;47.478;19.036;2023-03-19T00:26:06;100612.78;;;3.65;95.78
56604;BME280;42486;47.478;19.036;2023-03-19T00:29:10;100608.69;;;3.60;96.76
56604;BME280;42486;47.478;19.036;2023-03-19T00:32:14;100604.69;;;3.52;97.20
56604;BME280;42486;47.478;19.036;2023-03-19T00:35:18;100603.88;;;3.50;97.72
56604;BME280;42486;47.478;19.036;2023-03-19T00:38:22;100607.09;;;3.35;97.72
56604;BME280;42486;47.478;19.036;2023-03-19T00:41:26;100607.19;;;3.32;98.46
56604;BME280;42486;47.478;19.036;2023-03-19T00:44:30;100599.56;;;3.29;98.87
56604;BME280;42486;47.478;19.036;2023-03-19T00:47:34;100602.47;;;3.21;99.01
56604;BME280;42486;47.478;19.036;2023-03-19T00:50:38;100604.28;;;3.19;100.00
56604;BME280;42486;47.478;19.036;2023-03-19T00:53:42;100589.81;;;3.15;100.00
56604;BME280;42486;47.478;19.036;2023-03-19T00:56:47;100591.53;;;3.15;100.00
56604;BME280;42486;47.478;19.036;2023-03-19T00:59:50;100590.03;;;3.09;100.00
56604;BME280;42486;47.478;19.036;2023-03-19T01:02:55;100586.19;;;2.97;100.00
56604;BME280;42486;47.478;19.036;2023-03-19T01:05:59;100592.13;;;2.99;100.00
56604;BME280;42486;47.478;19.036;2023-03-19T01:09:02;100594.75;;;2.98;100.00
56604;BME280;42486;47.478;19.036;2023-03-19T01:12:08;100593.16;;;2.95;100.00
56604;BME280;42486;47.478;19.036;2023-03-19T01:15:13;100591.53;;;2.93;100.00
56604;BME280;42486;47.478;19.036;2023-03-19T01:18:16;100594.22;;;2.90;100.00
56604;BME280;42486;47.478;19.036;2023-03-19T01:21:19;100595.12;;;2.89;100.00
56604;BME280;42486;47.478;19.036;2023-03-19T01:24:21;100596.50;;;2.97;100.00
56604;BME280;42486;47.478;19.036;2023-03-19T01:27:24;100592.38;;;2.93;100.00
56604;BME280;42486;47.478;19.036;2023-03-19T01:30:29;100594.03;;;2.94;100.00
56604;BME280;42486;47.478;19.036;2023-03-19T01:33:33;100600.25;;;2.90;100.00
56604;BME280;42486;47.478;19.036;2023-03-19T01:36:36;100595.38;;;2.82;100.00
56604;BME280;42486;47.478;19.036;2023-03-19T01:39:40;100595.88;;;2.69;100.00
56604;BME280;42486;47.478;19.036;2023-03-19T01:42:54;100588.06;;;2.70;100.00
56604;BME280;42486;47.478;19.036;2023-03-19T01:46:44;100586.41;;;2.69;100.00
56604;BME280;42486;47.478;19.036;2023-03-19T01:49:23;100592.41;;;2.70;100.00
56604;BME280;42486;47.478;19.036;2023-03-19T01:52:29;100588.97;;;2.46;100.00
56604;BME280;42486;47.478;19.036;2023-03-19T01:55:33;100589.78;;;2.48;100.00
56604;BME280;42486;47.478;19.036;2023-03-19T01:58:37;100595.12;;;2.41;100.00
56604;BME280;42486;47.478;19.036;2023-03-19T02:02:04;100601.47;;;2.33;100.00
56604;BME280;42486;47.478;19.036;2023-03-19T02:05:08;100592.81;;;2.34;100.00
56604;BME280;42486;47.478;19.036;2023-03-19T02:08:14;100593.03;;;2.28;100.00
56604;BME280;42486;47.478;19.036;2023-03-19T02:11:23;100591.94;;;2.35;100.00
56604;BME280;42486;47.478;19.036;2023-03-19T02:14:29;100587.66;;;2.34;100.00
56604;BME280;42486;47.478;19.036;2023-03-19T02:17:34;100588.56;;;2.33;100.00
56604;BME280;42486;47.478;19.036;2023-03-19T02:20:41;100582.44;;;2.37;100.00
56604;BME280;42486;47.478;19.036;2023-03-19T02:23:50;100592.50;;;2.43;100.00
56604;BME280;42486;47.478;19.036;2023-03-19T02:26:55;100590.19;;;2.35;100.00
56604;BME280;42486;47.478;19.036;2023-03-19T02:29:59;100588.53;;;2.34;100.00
56604;BME280;42486;47.478;19.036;2023-03-19T02:33:03;100579.09;;;2.33;100.00
56604;BME280;42486;47.478;19.036;2023-03-19T02:36:11;100583.31;;;2.36;100.00
56604;BME280;42486;47.478;19.036;2023-03-19T02:39:19;100576.59;;;2.32;100.00
56604;BME280;42486;47.478;19.036;2023-03-19T02:42:25;100582.81;;;2.26;100.00
56604;BME280;42486;47.478;19.036;2023-03-19T02:45:34;100579.59;;;2.19;100.00
56604;BME280;42486;47.478;19.036;2023-03-19T02:48:38;100577.34;;;2.10;100.00
56604;BME280;42486;47.478;19.036;2023-03-19T02:51:42;100569.69;;;2.07;100.00
56604;BME280;42486;47.478;19.036;2023-03-19T02:54:46;100567.34;;;2.01;100.00
56604;BME280;42486;47.478;19.036;2023-03-19T02:57:50;100562.16;;;2.03;100.00
56604;BME280;42486;47.478;19.036;2023-03-19T03:00:54;100567.31;;;2.03;100.00
56604;BME280;42486;47.478;19.036;2023-03-19T03:03:57;100568.94;;;2.05;100.00
56604;BME280;42486;47.478;19.036;2023-03-19T03:07:00;100569.81;;;2.04;100.00
56604;BME280;42486;47.478;19.036;2023-03-19T03:10:05;100577.66;;;2.01;100.00
56604;BME280;42486;47.478;19.036;2023-03-19T03:13:10;100574.28;;;1.99;100.00
56604;BME280;42486;47.478;19.036;2023-03-19T03:16:16;100571.72;;;1.99;100.00
56604;BME280;42486;47.478;19.036;2023-03-19T03:19:19;100575.19;;;1.98;100.00
56604;BME280;42486;47.478;19.036;2023-03-19T03:22:23;100572.87;;;1.90;100.00
56604;BME280;42486;47.478;19.036;2023-03-19T03:25:26;100574.75;;;1.85;100.00
56604;BME280;42486;47.478;19.036;2023-03-19T03:28:30;100581.28;;;1.95;100.00
56604;BME280;42486;47.478;19.036;2023-03-19T03:31:34;100578.34;;;2.06;100.00
56604;BME280;42486;47.478;19.036;2023-03-19T03:34:37;100583.16;;;2.15;100.00
56604;BME280;42486;47.478;19.036;2023-03-19T03:37:40;100574.84;;;2.07;100.00
56604;BME280;42486;47.478;19.036;2023-03-19T03:40:48;100569.56;;;1.87;100.00
56604;BME280;42486;47.478;19.036;2023-03-19T03:43:52;100576.78;;;1.75;100.00
56604;BME280;42486;47.478;19.036;2023-03-19T03:46:56;100577.44;;;1.82;100.00
56604;BME280;42486;47.478;19.036;2023-03-19T03:50:00;100577.13;;;1.91;100.00
56604;BME280;42486;47.478;19.036;2023-03-19T03:53:04;100570.34;;;1.89;100.00
56604;BME280;42486;47.478;19.036;2023-03-19T03:56:07;100577.41;;;1.84;100.00
56604;BME280;42486;47.478;19.036;2023-03-19T03:59:11;100572.91;;;1.89;100.00
56604;BME280;42486;47.478;19.036;2023-03-19T04:02:13;100569.47;;;1.90;100.00
56604;BME280;42486;47.478;19.036;2023-03-19T04:05:18;100572.97;;;1.87;100.00
56604;BME280;42486;47.478;19.036;2023-03-19T04:08:20;100577.03;;;1.94;100.00
56604;BME280;42486;47.478;19.036;2023-03-19T04:11:24;100580.75;;;1.86;100.00
56604;BME280;42486;47.478;19.036;2023-03-19T04:14:26;100581.62;;;1.86;100.00
56604;BME280;42486;47.478;19.036;2023-03-19T04:17:30;100579.03;;;1.86;100.00
56604;BME280;42486;47.478;19.036;2023-03-19T04:20:34;100582.13;;;1.71;100.00
56604;BME280;42486;47.478;19.036;2023-03-19T04:23:38;100578.19;;;1.59;100.00
56604;BME280;42486;47.478;19.036;2023-03-19T04:26:43;100562.66;;;1.62;100.00
56604;BME280;42486;47.478;19.036;2023-03-19T04:29:48;100572.75;;;1.68;100.00
56604;BME280;42486;47.478;19.036;2023-03-19T04:32:52;100563.41;;;1.66;100.00
56604;BME280;42486;47.478;19.036;2023-03-19T04:35:55;100561.63;;;1.68;100.00
56604;BME280;42486;47.478;19.036;2023-03-19T04:38:58;100559.63;;;1.76;100.00
56604;BME280;42486;47.478;19.036;2023-03-19T04:42:02;100553.09;;;1.66;100.00
56604;BME280;42486;47.478;19.036;2023-03-19T04:45:08;100552.19;;;1.67;100.00
56604;BME280;42486;47.478;19.036;2023-03-19T04:48:11;100564.12;;;1.69;100.00
56604;BME280;42486;47.478;19.036;2023-03-19T04:51:14;100561.63;;;1.68;100.00
56604;BME280;42486;47.478;19.036;2023-03-19T04:54:18;100562.47;;;1.68;100.00
56604;BME280;42486;47.478;19.036;2023-03-19T04:57:22;100568.59;;;1.64;100.00
56604;BME280;42486;47.478;19.036;2023-03-19T05:00:25;100568.22;;;1.75;100.00
56604;BME280;42486;47.478;19.036;2023-03-19T05:03:30;100577.88;;;1.95;100.00
56604;BME280;42486;47.478;19.036;2023-03-19T05:06:34;100585.28;;;2.04;100.00
56604;BME280;42486;47.478;19.036;2023-03-19T05:09:38;100577.50;;;2.06;100.00
56604;BME280;42486;47.478;19.036;2023-03-19T05:12:42;100577.13;;;2.16;100.00
56604;BME280;42486;47.478;19.036;2023-03-19T05:15:45;100589.22;;;2.14;100.00
56604;BME280;42486;47.478;19.036;2023-03-19T05:18:49;100595.31;;;2.12;100.00
56604;BME280;42486;47.478;19.036;2023-03-19T05:21:51;100593.28;;;2.22;99.93
56604;BME280;42486;47.478;19.036;2023-03-19T05:24:54;100587.06;;;2.27;100.00
56604;BME280;42486;47.478;19.036;2023-03-19T05:27:57;100591.25;;;2.30;100.00
56604;BME280;42486;47.478;19.036;2023-03-19T05:30:59;100586.72;;;2.36;100.00
56604;BME280;42486;47.478;19.036;2023-03-19T05:34:03;100594.44;;;2.36;100.00
56604;BME280;42486;47.478;19.036;2023-03-19T05:37:06;100594.97;;;2.46;99.57
56604;BME280;42486;47.478;19.036;2023-03-19T05:40:09;100602.09;;;2.63;98.94
56604;BME280;42486;47.478;19.036;2023-03-19T05:43:13;100594.75;;;2.76;99.64
56604;BME280;42486;47.478;19.036;2023-03-19T05:46:16;100604.72;;;2.85;98.37
56604;BME280;42486;47.478;19.036;2023-03-19T05:49:19;100611.66;;;3.06;96.91
56604;BME280;42486;47.478;19.036;2023-03-19T05:52:22;100611.00;;;3.23;92.71
56604;BME280;42486;47.478;19.036;2023-03-19T05:55:24;100612.12;;;3.60;89.54
56604;BME280;42486;47.478;19.036;2023-03-19T05:58:27;100609.41;;;4.83;85.55
56604;BME280;42486;47.478;19.036;2023-03-19T06:01:30;100612.16;;;6.73;69.36
56604;BME280;42486;47.478;19.036;2023-03-19T06:04:33;100615.66;;;8.26;61.38
56604;BME280;42486;47.478;19.036;2023-03-19T06:07:36;100623.03;;;9.32;58.66
56604;BME280;42486;47.478;19.036;2023-03-19T06:10:39;100634.09;;;10.03;52.27
56604;BME280;42486;47.478;19.036;2023-03-19T06:13:42;100636.06;;;10.25;51.75
56604;BME280;42486;47.478;19.036;2023-03-19T06:16:44;100642.06;;;11.63;49.13
56604;BME280;42486;47.478;19.036;2023-03-19T06:19:48;100639.34;;;12.80;46.16
56604;BME280;42486;47.478;19.036;2023-03-19T06:22:51;100642.81;;;14.42;42.25
56604;BME280;42486;47.478;19.036;2023-03-19T06:25:53;100649.50;;;15.27;38.75
56604;BME280;42486;47.478;19.036;2023-03-19T06:28:56;100655.94;;;15.03;37.58
56604;BME280;42486;47.478;19.036;2023-03-19T06:31:59;100661.78;;;14.24;38.77
56604;BME280;42486;47.478;19.036;2023-03-19T06:35:02;100657.63;;;13.36;40.83
56604;BME280;42486;47.478;19.036;2023-03-19T06:38:05;100655.03;;;12.57;44.56
56604;BME280;42486;47.478;19.036;2023-03-19T06:41:09;100663.50;;;11.20;44.86
56604;BME280;42486;47.478;19.036;2023-03-19T06:44:12;100663.66;;;9.76;50.47
56604;BME280;42486;47.478;19.036;2023-03-19T06:47:15;100660.47;;;9.31;50.47
56604;BME280;42486;47.478;19.036;2023-03-19T06:50:17;100663.34;;;8.71;52.83
56604;BME280;42486;47.478;19.036;2023-03-19T06:53:20;100672.16;;;8.82;52.88
56604;BME280;42486;47.478;19.036;2023-03-19T06:56:23;100669.81;;;9.07;52.08
56604;BME280;42486;47.478;19.036;2023-03-19T06:59:26;100664.88;;;9.98;50.88
56604;BME280;42486;47.478;19.036;2023-03-19T07:02:28;100667.22;;;12.70;44.03
56604;BME280;42486;47.478;19.036;2023-03-19T07:05:32;100679.75;;;15.61;38.77
56604;BME280;42486;47.478;19.036;2023-03-19T07:08:35;100677.13;;;17.04;35.39
56604;BME280;42486;47.478;19.036;2023-03-19T07:11:37;100663.84;;;14.63;38.24
56604;BME280;42486;47.478;19.036;2023-03-19T07:14:40;100663.00;;;12.33;43.23
56604;BME280;42486;47.478;19.036;2023-03-19T07:17:47;100659.59;;;11.74;44.73
56604;BME280;42486;47.478;19.036;2023-03-19T07:20:50;100665.72;;;13.44;41.67
56604;BME280;42486;47.478;19.036;2023-03-19T07:23:54;100663.06;;;15.32;36.74
56604;BME280;42486;47.478;19.036;2023-03-19T07:26:56;100658.38;;;15.45;36.15
56604;BME280;42486;47.478;19.036;2023-03-19T07:29:59;100654.91;;;13.27;41.35
56604;BME280;42486;47.478;19.036;2023-03-19T07:33:02;100651.06;;;11.59;44.74
56604;BME280;42486;47.478;19.036;2023-03-19T07:36:05;100649.63;;;11.31;46.31
56604;BME280;42486;47.478;19.036;2023-03-19T07:39:08;100657.28;;;10.71;48.24
56604;BME280;42486;47.478;19.036;2023-03-19T07:42:11;100663.28;;;9.95;47.31
56604;BME280;42486;47.478;19.036;2023-03-19T07:45:14;100662.12;;;9.32;50.33
56604;BME280;42486;47.478;19.036;2023-03-19T07:48:17;100660.41;;;9.45;50.53
56604;BME280;42486;47.478;19.036;2023-03-19T07:51:20;100645.78;;;9.70;49.16
56604;BME280;42486;47.478;19.036;2023-03-19T07:54:23;100640.94;;;9.24;51.30
56604;BME280;42486;47.478;19.036;2023-03-19T07:57:26;100643.72;;;9.48;51.92
56604;BME280;42486;47.478;19.036;2023-03-19T08:00:29;100637.91;;;9.57;50.92
56604;BME280;42486;47.478;19.036;2023-03-19T08:03:31;100646.41;;;9.61;49.23
56604;BME280;42486;47.478;19.036;2023-03-19T08:06:34;100641.88;;;9.50;49.35
56604;BME280;42486;47.478;19.036;2023-03-19T08:09:38;100638.22;;;9.25;51.46
56604;BME280;42486;47.478;19.036;2023-03-19T08:12:41;100639.53;;;9.18;49.65
56604;BME280;42486;47.478;19.036;2023-03-19T08:15:44;100627.13;;;8.95;49.97
56604;BME280;42486;47.478;19.036;2023-03-19T08:18:47;100628.31;;;9.31;52.15
56604;BME280;42486;47.478;19.036;2023-03-19T08:21:52;100629.47;;;9.54;48.39
56604;BME280;42486;47.478;19.036;2023-03-19T08:24:56;100623.84;;;9.60;48.61
56604;BME280;42486;47.478;19.036;2023-03-19T08:27:59;100625.56;;;9.86;49.93
56604;BME280;42486;47.478;19.036;2023-03-19T08:31:08;100628.66;;;10.06;48.45
56604;BME280;42486;47.478;19.036;2023-03-19T08:34:12;100632.56;;;9.86;47.75
56604;BME280;42486;47.478;19.036;2023-03-19T08:37:15;100636.50;;;10.19;48.90
56604;BME280;42486;47.478;19.036;2023-03-19T08:40:18;100635.03;;;10.53;48.47
56604;BME280;42486;47.478;19.036;2023-03-19T08:43:21;100636.09;;;10.50;45.33
56604;BME280;42486;47.478;19.036;2023-03-19T08:46:24;100636.41;;;10.58;46.17
56604;BME280;42486;47.478;19.036;2023-03-19T08:49:28;100635.25;;;10.50;46.16
56604;BME280;42486;47.478;19.036;2023-03-19T08:52:31;100636.72;;;10.54;44.69
56604;BME280;42486;47.478;19.036;2023-03-19T08:55:35;100626.28;;;10.54;44.46
56604;BME280;42486;47.478;19.036;2023-03-19T08:58:37;100632.31;;;10.67;44.80
56604;BME280;42486;47.478;19.036;2023-03-19T09:01:42;100628.22;;;10.89;46.91
56604;BME280;42486;47.478;19.036;2023-03-19T09:04:45;100621.56;;;11.09;44.07
56604;BME280;42486;47.478;19.036;2023-03-19T09:07:49;100627.41;;;11.12;43.95
56604;BME280;42486;47.478;19.036;2023-03-19T09:10:54;100619.22;;;11.17;43.63
56604;BME280;42486;47.478;19.036;2023-03-19T09:13:57;100616.19;;;11.23;43.77
56604;BME280;42486;47.478;19.036;2023-03-19T09:17:00;100605.06;;;10.95;44.65
56604;BME280;42486;47.478;19.036;2023-03-19T09:20:02;100611.31;;;11.06;43.43
56604;BME280;42486;47.478;19.036;2023-03-19T09:23:07;100615.91;;;10.78;45.36
56604;BME280;42486;47.478;19.036;2023-03-19T09:26:09;100616.28;;;10.85;44.51
56604;BME280;42486;47.478;19.036;2023-03-19T09:29:12;100615.66;;;10.94;44.88
56604;BME280;42486;47.478;19.036;2023-03-19T09:32:15;100612.56;;;11.13;44.71
56604;BME280;42486;47.478;19.036;2023-03-19T09:35:18;100609.41;;;11.20;43.75
56604;BME280;42486;47.478;19.036;2023-03-19T09:38:21;100617.53;;;11.29;43.65
56604;BME280;42486;47.478;19.036;2023-03-19T09:44:34;100604.13;;;11.33;42.56
56604;BME280;42486;47.478;19.036;2023-03-19T09:47:39;100600.50;;;11.23;43.69
56604;BME280;42486;47.478;19.036;2023-03-19T09:50:43;100592.19;;;11.29;43.23
56604;BME280;42486;47.478;19.036;2023-03-19T09:54:01;100592.56;;;11.60;43.66
56604;BME280;42486;47.478;19.036;2023-03-19T09:57:07;100581.19;;;11.83;42.66
56604;BME280;42486;47.478;19.036;2023-03-19T10:03:32;100585.38;;;12.21;41.81
56604;BME280;42486;47.478;19.036;2023-03-19T10:06:40;100592.63;;;12.40;41.26
56604;BME280;42486;47.478;19.036;2023-03-19T10:09:49;100588.22;;;12.41;40.41
56604;BME280;42486;47.478;19.036;2023-03-19T10:13:11;100586.91;;;12.46;40.35
56604;BME280;42486;47.478;19.036;2023-03-19T10:16:20;100585.94;;;12.36;40.46
56604;BME280;42486;47.478;19.036;2023-03-19T10:19:28;100579.03;;;12.57;40.15
56604;BME280;42486;47.478;19.036;2023-03-19T10:22:35;100583.44;;;12.57;39.66
56604;BME280;42486;47.478;19.036;2023-03-19T10:25:42;100570.94;;;12.72;40.51
56604;BME280;42486;47.478;19.036;2023-03-19T10:35:23;100568.94;;;13.51;38.38
56604;BME280;42486;47.478;19.036;2023-03-19T10:38:28;100563.16;;;13.36;38.40
56604;BME280;42486;47.478;19.036;2023-03-19T10:48:25;100548.63;;;13.95;38.39
56604;BME280;42486;47.478;19.036;2023-03-19T10:51:29;100553.75;;;14.27;38.41
56604;BME280;42486;47.478;19.036;2023-03-19T10:54:32;100545.44;;;14.22;37.26
56604;BME280;42486;47.478;19.036;2023-03-19T10:57:41;100536.63;;;14.23;36.36
56604;BME280;42486;47.478;19.036;2023-03-19T11:00:45;100540.12;;;14.34;36.37
56604;BME280;42486;47.478;19.036;2023-03-19T11:03:58;100531.63;;;14.20;36.96
56604;BME280;42486;47.478;19.036;2023-03-19T11:07:05;100533.81;;;14.15;37.13
56604;BME280;42486;47.478;19.036;2023-03-19T11:10:11;100526.09;;;14.23;39.51
56604;BME280;42486;47.478;19.036;2023-03-19T11:13:18;100516.78;;;14.50;37.38
56604;BME280;42486;47.478;19.036;2023-03-19T11:16:24;100507.47;;;14.36;37.44
56604;BME280;42486;47.478;19.036;2023-03-19T11:19:28;100498.63;;;14.06;37.69
56604;BME280;42486;47.478;19.036;2023-03-19T11:22:34;100507.44;;;14.26;37.51
56604;BME280;42486;47.478;19.036;2023-03-19T11:25:38;100490.28;;;14.32;38.71
56604;BME280;42486;47.478;19.036;2023-03-19T11:28:43;100496.31;;;14.13;36.65
56604;BME280;42486;47.478;19.036;2023-03-19T11:32:02;100486.62;;;14.14;37.35
56604;BME280;42486;47.478;19.036;2023-03-19T11:35:22;100477.69;;;14.26;37.38
56604;BME280;42486;47.478;19.036;2023-03-19T11:38:33;100468.81;;;14.67;37.67
56604;BME280;42486;47.478;19.036;2023-03-19T11:41:46;100479.62;;;14.93;35.91
56604;BME280;42486;47.478;19.036;2023-03-19T11:44:52;100476.88;;;14.95;34.90
56604;BME280;42486;47.478;19.036;2023-03-19T11:51:40;100459.00;;;15.08;34.53
56604;BME280;42486;47.478;19.036;2023-03-19T11:54:48;100458.13;;;15.37;35.37
56604;BME280;42486;47.478;19.036;2023-03-19T11:58:04;100458.56;;;15.32;33.53
56604;BME280;42486;47.478;19.036;2023-03-19T12:11:12;100438.78;;;15.85;32.43
56604;BME280;42486;47.478;19.036;2023-03-19T12:23:57;100421.53;;;15.44;34.07
56604;BME280;42486;47.478;19.036;2023-03-19T12:27:08;100415.16;;;15.56;34.13
56604;BME280;42486;47.478;19.036;2023-03-19T12:30:19;100412.03;;;15.80;34.08
56604;BME280;42486;47.478;19.036;2023-03-19T12:33:27;100409.31;;;15.99;32.89
56604;BME280;42486;47.478;19.036;2023-03-19T12:36:37;100408.78;;;15.96;31.21
56604;BME280;42486;47.478;19.036;2023-03-19T12:39:44;100406.56;;;15.91;32.85
56604;BME280;42486;47.478;19.036;2023-03-19T12:42:50;100395.09;;;16.10;31.94
56604;BME280;42486;47.478;19.036;2023-03-19T12:46:12;100393.34;;;15.73;32.57
56604;BME280;42486;47.478;19.036;2023-03-19T12:52:25;100382.28;;;15.50;33.48
56604;BME280;42486;47.478;19.036;2023-03-19T12:58:41;100379.56;;;15.42;33.24
56604;BME280;42486;47.478;19.036;2023-03-19T13:01:49;100371.97;;;15.76;34.21
56604;BME280;42486;47.478;19.036;2023-03-19T13:05:37;100373.03;;;16.11;33.61
56604;BME280;42486;47.478;19.036;2023-03-19T13:14:56;100358.59;;;16.69;31.12
56604;BME280;42486;47.478;19.036;2023-03-19T13:21:20;100353.03;;;16.36;33.34
56604;BME280;42486;47.478;19.036;2023-03-19T13:24:42;100358.09;;;16.02;32.91
56604;BME280;42486;47.478;19.036;2023-03-19T13:27:53;100343.75;;;15.59;33.25
56604;BME280;42486;47.478;19.036;2023-03-19T13:31:06;100349.25;;;15.28;33.34
56604;BME280;42486;47.478;19.036;2023-03-19T13:37:19;100333.53;;;14.99;35.35
56604;BME280;42486;47.478;19.036;2023-03-19T13:41:23;100331.72;;;15.09;34.63
56604;BME280;42486;47.478;19.036;2023-03-19T13:43:52;100323.59;;;14.93;34.55
56604;BME280;42486;47.478;19.036;2023-03-19T13:46:56;100315.00;;;14.81;35.40
56604;BME280;42486;47.478;19.036;2023-03-19T13:53:17;100306.88;;;14.74;36.32
56604;BME280;42486;47.478;19.036;2023-03-19T13:56:21;100298.56;;;14.69;36.29
56604;BME280;42486;47.478;19.036;2023-03-19T13:59:32;100299.53;;;14.78;36.24
56604;BME280;42486;47.478;19.036;2023-03-19T14:05:41;100297.66;;;15.08;34.77
56604;BME280;42486;47.478;19.036;2023-03-19T14:08:44;100307.25;;;15.36;34.07
56604;BME280;42486;47.478;19.036;2023-03-19T14:11:53;100300.63;;;15.60;33.64
56604;BME280;42486;47.478;19.036;2023-03-19T14:14:58;100294.16;;;16.00;33.04
56604;BME280;42486;47.478;19.036;2023-03-19T14:18:02;100296.28;;;16.14;32.96
56604;BME280;42486;47.478;19.036;2023-03-19T14:21:13;100297.87;;;16.25;32.73
56604;BME280;42486;47.478;19.036;2023-03-19T14:28:00;100306.31;;;16.11;32.87
56604;BME280;42486;47.478;19.036;2023-03-19T14:31:04;100296.12;;;15.98;33.22
56604;BME280;42486;47.478;19.036;2023-03-19T14:34:31;100295.56;;;15.76;32.84
56604;BME280;42486;47.478;19.036;2023-03-19T14:40:41;100288.28;;;15.33;33.84
56604;BME280;42486;47.478;19.036;2023-03-19T14:47:27;100287.84;;;15.37;34.08
56604;BME280;42486;47.478;19.036;2023-03-19T14:53:53;100287.09;;;15.45;34.96
56604;BME280;42486;47.478;19.036;2023-03-19T14:57:04;100297.00;;;15.61;33.42
56604;BME280;42486;47.478;19.036;2023-03-19T15:00:11;100297.16;;;15.69;33.25
56604;BME280;42486;47.478;19.036;2023-03-19T15:06:21;100291.84;;;15.97;34.25
56604;BME280;42486;47.478;19.036;2023-03-19T15:09:25;100288.22;;;15.98;33.82
56604;BME280;42486;47.478;19.036;2023-03-19T15:12:34;100290.25;;;15.86;35.10
56604;BME280;42486;47.478;19.036;2023-03-19T15:19:13;100286.69;;;15.50;33.24
56604;BME280;42486;47.478;19.036;2023-03-19T15:22:29;100278.72;;;15.32;34.92
56604;BME280;42486;47.478;19.036;2023-03-19T15:25:43;100289.75;;;15.08;35.06
56604;BME280;42486;47.478;19.036;2023-03-19T15:28:47;100287.19;;;14.88;34.78
56604;BME280;42486;47.478;19.036;2023-03-19T15:31:50;100288.19;;;14.68;36.01
56604;BME280;42486;47.478;19.036;2023-03-19T15:35:06;100286.94;;;14.62;36.46
56604;BME280;42486;47.478;19.036;2023-03-19T15:38:09;100287.50;;;14.46;36.92
56604;BME280;42486;47.478;19.036;2023-03-19T15:41:14;100293.59;;;14.37;35.51
56604;BME280;42486;47.478;19.036;2023-03-19T15:44:25;100287.81;;;14.34;36.63
56604;BME280;42486;47.478;19.036;2023-03-19T15:47:30;100290.56;;;14.42;35.81
56604;BME280;42486;47.478;19.036;2023-03-19T15:50:36;100289.44;;;14.35;36.35
56604;BME280;42486;47.478;19.036;2023-03-19T15:53:42;100286.81;;;14.35;36.58
56604;BME280;42486;47.478;19.036;2023-03-19T15:56:46;100290.69;;;14.21;36.65
56604;BME280;42486;47.478;19.036;2023-03-19T15:59:51;100297.75;;;14.10;38.42
56604;BME280;42486;47.478;19.036;2023-03-19T16:02:54;100298.81;;;13.98;38.00
56604;BME280;42486;47.478;19.036;2023-03-19T16:05:58;100297.44;;;13.94;38.53
56604;BME280;42486;47.478;19.036;2023-03-19T16:09:45;100293.56;;;13.88;38.59
56604;BME280;42486;47.478;19.036;2023-03-19T16:12:38;100305.41;;;13.73;38.61
56604;BME280;42486;47.478;19.036;2023-03-19T16:15:44;100308.59;;;13.67;39.01
56604;BME280;42486;47.478;19.036;2023-03-19T16:18:50;100305.22;;;13.55;39.42
56604;BME280;42486;47.478;19.036;2023-03-19T16:21:53;100312.22;;;13.45;39.52
56604;BME280;42486;47.478;19.036;2023-03-19T16:24:56;100303.47;;;13.35;39.36
56604;BME280;42486;47.478;19.036;2023-03-19T16:28:00;100299.28;;;13.22;39.69
56604;BME280;42486;47.478;19.036;2023-03-19T16:31:02;100303.31;;;13.06;40.34
56604;BME280;42486;47.478;19.036;2023-03-19T16:34:12;100299.38;;;12.90;41.65
56604;BME280;42486;47.478;19.036;2023-03-19T16:40:39;100300.78;;;12.52;42.95
56604;BME280;42486;47.478;19.036;2023-03-19T16:43:42;100304.66;;;12.37;43.10
56604;BME280;42486;47.478;19.036;2023-03-19T16:46:47;100309.72;;;12.29;45.38
56604;BME280;42486;47.478;19.036;2023-03-19T16:49:50;100313.88;;;12.20;46.47
56604;BME280;42486;47.478;19.036;2023-03-19T16:52:52;100313.69;;;12.12;46.49
56604;BME280;42486;47.478;19.036;2023-03-19T16:55:56;100321.47;;;12.02;46.87
56604;BME280;42486;47.478;19.036;2023-03-19T16:59:00;100322.75;;;11.97;47.56
56604;BME280;42486;47.478;19.036;2023-03-19T17:02:14;100315.88;;;11.84;47.74
56604;BME280;42486;47.478;19.036;2023-03-19T17:05:17;100326.22;;;11.75;48.53
56604;BME280;42486;47.478;19.036;2023-03-19T17:08:19;100319.84;;;11.67;50.37
56604;BME280;42486;47.478;19.036;2023-03-19T17:11:27;100326.25;;;11.63;50.68
56604;BME280;42486;47.478;19.036;2023-03-19T17:14:30;100325.66;;;11.60;51.72
56604;BME280;42486;47.478;19.036;2023-03-19T17:17:33;100323.03;;;11.60;51.05
56604;BME280;42486;47.478;19.036;2023-03-19T17:20:37;100329.34;;;11.57;50.72
56604;BME280;42486;47.478;19.036;2023-03-19T17:23:43;100325.28;;;11.53;51.70
56604;BME280;42486;47.478;19.036;2023-03-19T17:26:46;100323.75;;;11.51;51.38
56604;BME280;42486;47.478;19.036;2023-03-19T17:29:49;100332.81;;;11.46;51.58